Time;durP1;ratioP1;P1;durP2;ratioP2;P2;SDS_P1;SDS_P2;PMS_P1;PMS_P2;Temp;Humidity;BMP_temperature;BMP_pressure;BME280_temperature;BME280_humidity;BME280_pressure;Samples;Min_cycle;Max_cycle;Signal;HPM_P1;HPM_P2
2021/10/22 00:00:39;;;;;;;;;;;;;;;20.29;56.37;101648.72;7290784;19;152079;-53
2021/10/22 00:03:07;;;;;;;;;;;;;;;20.29;56.49;101645.06;7283813;19;153450;-54
2021/10/22 00:05:33;;;;;;;;;;;;;;;20.27;56.22;101647.31;7286016;19;151763;-53
2021/10/22 00:08:01;;;;;;;;;;;;;;;20.25;56.50;101653.22;7283536;19;152683;-54
2021/10/22 00:10:28;;;;;;;;;;;;;;;20.23;56.34;101643.41;7283991;19;152152;-55
2021/10/22 00:12:55;;;;;;;;;;;;;;;20.24;56.69;101650.69;7287057;19;152237;-54
2021/10/22 00:15:22;;;;;;;;;;;;;;;20.21;56.24;101654.94;7284472;19;153523;-54
2021/10/22 00:17:49;;;;;;;;;;;;;;;20.20;56.65;101652.41;7283536;19;153143;-54
2021/10/22 00:20:16;;;;;;;;;;;;;;;20.19;56.20;101653.53;7287374;19;151845;-54
2021/10/22 00:22:43;;;;;;;;;;;;;;;20.17;56.71;101645.41;7290991;19;153646;-54
2021/10/22 00:25:10;;;;;;;;;;;;;;;20.15;56.44;101638.41;7285466;19;151916;-54
2021/10/22 00:27:37;;;;;;;;;;;;;;;20.14;56.27;101646.00;7284474;19;152567;-54
2021/10/22 00:30:04;;;;;;;;;;;;;;;20.14;56.77;101656.38;7283257;19;153365;-53
2021/10/22 00:32:31;;;;;;;;;;;;;;;20.13;56.44;101649.06;7286311;19;151580;-54
2021/10/22 00:34:59;;;;;;;;;;;;;;;20.10;56.75;101653.31;7286721;19;152192;-54
2021/10/22 00:37:25;;;;;;;;;;;;;;;20.08;56.50;101643.50;7283788;19;154617;-54
2021/10/22 00:39:52;;;;;;;;;;;;;;;20.06;56.89;101643.78;7284398;19;152002;-53
2021/10/22 00:42:20;;;;;;;;;;;;;;;20.06;56.62;101640.13;7283753;19;152637;-54
2021/10/22 00:44:49;;;;;;;;;;;;;;;20.03;56.90;101650.00;7291326;19;152234;-54
2021/10/22 00:47:16;;;;;;;;;;;;;;;20.02;56.84;101644.66;7283457;19;152811;-54
2021/10/22 00:49:43;;;;;;;;;;;;;;;20.02;57.04;101636.25;7283213;19;153962;-54
2021/10/22 00:52:10;;;;;;;;;;;;;;;19.99;57.30;101638.47;7286032;19;151704;-54
2021/10/22 00:54:37;;;;;;;;;;;;;;;20.02;56.97;101636.25;7285055;19;152705;-54
2021/10/22 00:57:05;;;;;;;;;;;;;;;19.99;57.25;101635.69;7278256;19;153671;-54
2021/10/22 00:59:32;;;;;;;;;;;;;;;19.97;57.26;101629.53;7283676;19;152632;-54
2021/10/22 01:01:59;;;;;;;;;;;;;;;19.97;57.24;101623.91;7286168;19;152723;-54
2021/10/22 01:04:26;;;;;;;;;;;;;;;19.95;57.42;101622.50;7291952;19;153304;-53
2021/10/22 01:06:53;;;;;;;;;;;;;;;19.94;57.15;101620.88;7285230;19;152577;-54
2021/10/22 01:09:21;;;;;;;;;;;;;;;19.93;57.75;101620.03;7283506;19;153833;-54
2021/10/22 01:11:49;;;;;;;;;;;;;;;19.92;57.82;101614.69;7283266;19;151930;-54
2021/10/22 01:14:17;;;;;;;;;;;;;;;19.90;57.59;101623.38;7285634;19;151617;-54
2021/10/22 01:16:53;;;;;;;;;;;;;;;19.90;57.57;101623.38;7284540;19;152312;-54
2021/10/22 01:19:27;;;;;;;;;;;;;;;19.90;57.62;101625.34;7282733;19;151995;-54
2021/10/22 01:21:59;;;;;;;;;;;;;;;19.89;57.50;101627.34;7283983;19;152835;-54
2021/10/22 01:24:40;;;;;;;;;;;;;;;19.89;57.63;101623.69;7278803;19;154725;-54
2021/10/22 01:27:08;;;;;;;;;;;;;;;19.88;57.93;101627.63;7291325;19;151533;-54
2021/10/22 01:29:37;;;;;;;;;;;;;;;19.89;57.88;101615.28;7284213;19;152323;-54
2021/10/22 01:32:09;;;;;;;;;;;;;;;19.87;58.03;101620.31;7284743;19;151737;-54
2021/10/22 01:34:44;;;;;;;;;;;;;;;19.86;57.64;101616.66;7283327;19;151626;-54
2021/10/22 01:37:13;;;;;;;;;;;;;;;19.85;58.09;101614.19;7282515;19;152709;-54
2021/10/22 01:39:42;;;;;;;;;;;;;;;19.84;57.58;101612.50;7284600;19;152024;-54
2021/10/22 01:42:09;;;;;;;;;;;;;;;19.84;57.51;101620.91;7283609;19;152734;-54
2021/10/22 01:44:36;;;;;;;;;;;;;;;19.84;57.82;101613.34;7281016;19;154100;-54
2021/10/22 01:47:03;;;;;;;;;;;;;;;19.82;57.74;101609.97;7284280;19;151838;-54
2021/10/22 01:49:30;;;;;;;;;;;;;;;19.83;57.76;101619.22;7291757;19;152762;-54
2021/10/22 01:51:56;;;;;;;;;;;;;;;19.79;57.55;101604.09;7286777;19;151820;-53
2021/10/22 01:54:23;;;;;;;;;;;;;;;19.79;57.65;101607.75;7284135;19;152097;-54
2021/10/22 01:56:50;;;;;;;;;;;;;;;19.78;57.71;101608.88;7280914;19;154045;-53
2021/10/22 01:59:16;;;;;;;;;;;;;;;19.78;57.98;101608.03;7281024;19;155264;-53
2021/10/22 02:01:43;;;;;;;;;;;;;;;19.78;57.75;101602.41;7284361;19;153730;-53
2021/10/22 02:04:10;;;;;;;;;;;;;;;19.78;57.70;101613.63;7282941;19;154009;-53
2021/10/22 02:06:37;;;;;;;;;;;;;;;19.76;57.72;101610.28;7282332;19;152172;-54
2021/10/22 02:09:04;;;;;;;;;;;;;;;19.76;57.78;101613.09;7283784;19;152925;-54
2021/10/22 02:11:30;;;;;;;;;;;;;;;19.76;58.08;101610.28;7289076;19;153793;-54
2021/10/22 02:13:57;;;;;;;;;;;;;;;19.73;57.67;101608.88;7283758;19;153522;-53
2021/10/22 02:16:24;;;;;;;;;;;;;;;19.72;58.16;101615.59;7281249;19;153471;-54
2021/10/22 02:18:51;;;;;;;;;;;;;;;19.72;57.85;101618.41;7283398;19;151912;-53
2021/10/22 02:21:18;;;;;;;;;;;;;;;19.71;57.97;101618.72;7283697;19;153204;-54
2021/10/22 02:23:44;;;;;;;;;;;;;;;19.72;57.86;101614.75;7282777;19;153962;-54
2021/10/22 02:26:11;;;;;;;;;;;;;;;19.70;58.37;101611.44;7283780;19;151526;-54
2021/10/22 02:28:38;;;;;;;;;;;;;;;19.70;58.05;101620.69;7281472;19;153656;-54
2021/10/22 02:31:04;;;;;;;;;;;;;;;19.68;58.06;101617.31;7283793;19;154297;-54
2021/10/22 02:33:31;;;;;;;;;;;;;;;19.67;58.23;101598.81;7297630;19;151912;-54
2021/10/22 02:35:58;;;;;;;;;;;;;;;19.67;58.06;101606.41;7288886;19;153492;-54
2021/10/22 02:38:24;;;;;;;;;;;;;;;19.67;58.01;101607.22;7290274;19;151815;-54
2021/10/22 02:40:51;;;;;;;;;;;;;;;19.67;57.92;101603.59;7288952;19;153161;-54
2021/10/22 02:43:18;;;;;;;;;;;;;;;19.65;58.23;101598.28;7288689;19;153548;-54
2021/10/22 02:45:44;;;;;;;;;;;;;;;19.66;57.83;101599.97;7289091;19;152158;-54
2021/10/22 02:48:11;;;;;;;;;;;;;;;19.64;58.14;101604.16;7288037;19;151956;-54
2021/10/22 02:50:37;;;;;;;;;;;;;;;19.62;58.03;101607.25;7287354;19;153793;-54
2021/10/22 02:53:04;;;;;;;;;;;;;;;19.60;58.20;101595.47;7296298;19;152064;-54
2021/10/22 02:55:31;;;;;;;;;;;;;;;19.61;58.29;101601.94;7287879;19;155126;-54
2021/10/22 02:57:57;;;;;;;;;;;;;;;19.58;58.06;101603.31;7283744;19;152414;-54
2021/10/22 03:00:24;;;;;;;;;;;;;;;19.57;58.36;101601.66;7285982;19;154118;-54
2021/10/22 03:02:50;;;;;;;;;;;;;;;19.57;58.56;101590.47;7288865;19;153920;-54
2021/10/22 03:05:17;;;;;;;;;;;;;;;19.56;58.10;101594.38;7288417;19;151730;-54
2021/10/22 03:07:44;;;;;;;;;;;;;;;19.56;58.63;101596.34;7287313;19;153439;-54
2021/10/22 03:10:11;;;;;;;;;;;;;;;19.54;58.65;101591.00;7288458;19;153617;-54
2021/10/22 03:12:38;;;;;;;;;;;;;;;19.53;58.28;101600.56;7289623;19;151787;-54
2021/10/22 03:15:06;;;;;;;;;;;;;;;19.54;58.28;101593.81;7295243;19;152823;-54
2021/10/22 03:17:32;;;;;;;;;;;;;;;19.53;58.45;101600.56;7289314;19;151781;-54
2021/10/22 03:19:59;;;;;;;;;;;;;;;19.51;58.73;101602.81;7288772;19;154056;-54
2021/10/22 03:22:26;;;;;;;;;;;;;;;19.52;58.48;101599.72;7288215;19;154004;-54
2021/10/22 03:24:52;;;;;;;;;;;;;;;19.49;58.84;101600.28;7288683;19;151694;-53
2021/10/22 03:27:21;;;;;;;;;;;;;;;19.51;58.68;101600.84;7288501;19;153018;-53
2021/10/22 03:29:47;;;;;;;;;;;;;;;19.52;58.92;101598.88;7286983;19;152359;-53
2021/10/22 03:32:14;;;;;;;;;;;;;;;19.50;58.83;101601.13;7286393;19;151906;-54
2021/10/22 03:34:53;;;;;;;;;;;;;;;19.48;58.65;101592.19;7287751;19;152028;-53
2021/10/22 03:37:20;;;;;;;;;;;;;;;19.45;58.83;101601.97;7295367;19;154135;-53
2021/10/22 03:39:46;;;;;;;;;;;;;;;19.46;58.81;101611.22;7288254;19;153072;-53
2021/10/22 03:42:13;;;;;;;;;;;;;;;19.43;59.11;101608.97;7285832;19;153500;-53
2021/10/22 03:44:42;;;;;;;;;;;;;;;19.42;58.89;101598.88;7286337;19;151664;-53
2021/10/22 03:47:10;;;;;;;;;;;;;;;19.42;58.89;101610.94;7288160;19;153254;-53
2021/10/22 03:49:36;;;;;;;;;;;;;;;19.41;59.17;101608.41;7286596;19;153971;-54
2021/10/22 03:52:03;;;;;;;;;;;;;;;19.43;59.01;101606.16;7285874;19;152004;-53
2021/10/22 03:54:30;;;;;;;;;;;;;;;19.43;59.31;101603.38;7281548;19;153085;-54
2021/10/22 03:56:56;;;;;;;;;;;;;;;19.42;59.21;101599.72;7283038;19;153094;-54
2021/10/22 03:59:23;;;;;;;;;;;;;;;19.42;58.96;101605.31;7290404;19;151875;-54
2021/10/22 04:01:50;;;;;;;;;;;;;;;19.40;59.04;101603.91;7287094;19;153425;-54
2021/10/22 04:04:17;;;;;;;;;;;;;;;19.41;58.98;101600.84;7288263;19;151954;-54
2021/10/22 04:06:44;;;;;;;;;;;;;;;19.43;59.14;101603.38;7285908;19;153436;-54
2021/10/22 04:09:11;;;;;;;;;;;;;;;19.41;59.39;101608.41;7281036;19;154280;-53
2021/10/22 04:11:37;;;;;;;;;;;;;;;19.39;59.26;101605.91;7288375;19;152178;-54
2021/10/22 04:14:04;;;;;;;;;;;;;;;19.38;59.73;101598.63;7287912;19;153244;-54
2021/10/22 04:16:31;;;;;;;;;;;;;;;19.39;59.52;101607.88;7286403;19;153760;-54
2021/10/22 04:18:57;;;;;;;;;;;;;;;19.38;59.60;101604.22;7288177;19;152035;-54
2021/10/22 04:21:24;;;;;;;;;;;;;;;19.38;59.72;101603.38;7293215;19;153440;-54
2021/10/22 04:23:51;;;;;;;;;;;;;;;19.37;59.77;101602.53;7288241;19;151582;-54
2021/10/22 04:26:17;;;;;;;;;;;;;;;19.37;59.45;101610.09;7286148;19;153655;-54
2021/10/22 04:28:44;;;;;;;;;;;;;;;19.37;59.38;101613.75;7284459;19;153533;-54
2021/10/22 04:31:11;;;;;;;;;;;;;;;19.35;59.63;101610.38;7285669;19;151754;-53
2021/10/22 04:33:39;;;;;;;;;;;;;;;19.35;59.44;101618.78;7286056;19;153246;-54
2021/10/22 04:36:08;;;;;;;;;;;;;;;19.34;59.42;101619.94;7285411;19;153610;-54
2021/10/22 04:41:13;;;;;;;;;;;;;;;19.35;59.80;101623.56;7287633;19;152633;-53
2021/10/22 04:43:40;;;;;;;;;;;;;;;19.35;59.84;101624.38;7291415;19;154406;-54
2021/10/22 04:46:06;;;;;;;;;;;;;;;19.40;60.51;101638.38;7287055;19;152794;-53
2021/10/22 04:48:39;;;;;;;;;;;;;;;19.44;60.97;101641.50;7284841;19;153327;-54
2021/10/22 04:51:06;;;;;;;;;;;;;;;19.46;61.14;101633.66;7285412;19;152043;-54
2021/10/22 04:53:33;;;;;;;;;;;;;;;19.47;60.91;101638.97;7286472;19;153506;-54
2021/10/22 04:55:59;;;;;;;;;;;;;;;19.50;61.13;101634.75;7282097;19;153517;-54
2021/10/22 04:58:26;;;;;;;;;;;;;;;19.53;61.40;101637.00;7285876;19;151667;-55
2021/10/22 05:00:57;;;;;;;;;;;;;;;19.58;62.04;101647.38;7286181;19;153126;-54
2021/10/22 05:03:25;;;;;;;;;;;;;;;19.62;61.88;101635.28;7291621;19;153773;-54
2021/10/22 05:05:51;;;;;;;;;;;;;;;19.67;62.10;101634.44;7284774;19;152608;-54
2021/10/22 05:08:18;;;;;;;;;;;;;;;19.71;62.57;101636.38;7283050;19;153229;-54
2021/10/22 05:10:44;;;;;;;;;;;;;;;19.77;62.45;101634.38;7283135;19;152365;-53
2021/10/22 05:13:11;;;;;;;;;;;;;;;19.83;62.56;101630.44;7286214;19;153658;-54
2021/10/22 05:15:38;;;;;;;;;;;;;;;19.88;61.94;101636.03;7285526;19;153771;-54
2021/10/22 05:18:04;;;;;;;;;;;;;;;19.94;61.77;101637.69;7286833;19;151658;-54
2021/10/22 05:20:31;;;;;;;;;;;;;;;19.99;61.56;101632.03;7286416;19;153133;-54
2021/10/22 05:22:58;;;;;;;;;;;;;;;20.04;61.55;101633.97;7285015;19;153741;-53
2021/10/22 05:25:25;;;;;;;;;;;;;;;20.11;61.34;101637.31;7293767;19;151853;-53
2021/10/22 05:27:52;;;;;;;;;;;;;;;20.16;61.61;101646.56;7283970;19;153432;-53
2021/10/22 05:30:19;;;;;;;;;;;;;;;20.21;61.35;101637.25;7284805;19;151702;-54
2021/10/22 05:32:45;;;;;;;;;;;;;;;20.26;61.64;101631.63;7285472;19;153015;-54
2021/10/22 05:35:12;;;;;;;;;;;;;;;20.31;61.20;101626.81;7285210;19;153789;-54
2021/10/22 05:37:39;;;;;;;;;;;;;;;20.38;60.78;101626.53;7286514;19;152016;-55
2021/10/22 05:40:06;;;;;;;;;;;;;;;20.43;60.79;101632.09;7285743;19;153593;-54
2021/10/22 05:42:33;;;;;;;;;;;;;;;20.48;60.45;101629.25;7282792;19;153498;-54
2021/10/22 05:44:59;;;;;;;;;;;;;;;20.53;60.62;101632.03;7285154;19;151491;-54
2021/10/22 05:47:26;;;;;;;;;;;;;;;20.58;60.02;101631.97;7291606;19;153540;-54
2021/10/22 05:49:53;;;;;;;;;;;;;;;20.64;59.66;101635.59;7282888;19;151691;-54
2021/10/22 05:52:19;;;;;;;;;;;;;;;20.68;59.95;101633.88;7283295;19;153693;-54
2021/10/22 05:54:46;;;;;;;;;;;;;;;20.73;59.53;101637.47;7284092;19;153558;-54
2021/10/22 05:57:13;;;;;;;;;;;;;;;20.77;59.41;101632.94;7284373;19;151987;-54
2021/10/22 05:59:40;;;;;;;;;;;;;;;20.82;59.37;101641.34;7282299;19;152876;-54
2021/10/22 06:02:13;;;;;;;;;;;;;;;20.88;59.06;101624.44;7284110;19;153869;-54
2021/10/22 06:04:40;;;;;;;;;;;;;;;20.93;59.11;101625.25;7284072;19;151936;-54
2021/10/22 06:07:06;;;;;;;;;;;;;;;20.99;59.22;101621.22;7290088;19;153109;-53
2021/10/22 06:09:33;;;;;;;;;;;;;;;21.03;58.86;101624.31;7294630;19;153893;-54
2021/10/22 06:11:59;;;;;;;;;;;;;;;21.07;58.43;101626.25;7289050;19;152111;-54
2021/10/22 06:14:26;;;;;;;;;;;;;;;21.11;58.57;101624.50;7289192;19;154340;-54
2021/10/22 06:16:53;;;;;;;;;;;;;;;21.20;58.55;101628.38;7292124;19;152358;-53
2021/10/22 06:19:27;;;;;;;;;;;;;;;21.27;58.15;101633.63;7290258;19;151951;-54
2021/10/22 06:22:07;;;;;;;;;;;;;;;21.28;56.21;101627.72;7290644;19;153840;-54
2021/10/22 06:24:34;;;;;;;;;;;;;;;21.32;54.83;101627.97;7290518;19;151731;-53
2021/10/22 06:27:01;;;;;;;;;;;;;;;21.34;54.40;101625.72;7285939;19;153192;-53
2021/10/22 06:29:37;;;;;;;;;;;;;;;21.39;54.57;101622.00;7286266;19;153478;-53
2021/10/22 06:32:04;;;;;;;;;;;;;;;21.41;54.20;101622.53;7298814;19;151456;-53
2021/10/22 06:34:38;;;;;;;;;;;;;;;21.43;53.75;101626.75;7290419;19;153997;-53
2021/10/22 06:37:05;;;;;;;;;;;;;;;21.45;53.35;101627.25;7290458;19;152382;-53
2021/10/22 06:39:31;;;;;;;;;;;;;;;21.47;52.98;101625.00;7289549;19;152857;-53
2021/10/22 06:42:01;;;;;;;;;;;;;;;21.48;52.66;101628.66;7289041;19;152303;-53
2021/10/22 06:44:28;;;;;;;;;;;;;;;21.49;52.76;101633.97;7290453;19;151819;-53
2021/10/22 06:46:55;;;;;;;;;;;;;;;21.50;52.30;101629.19;7289594;19;152214;-53
2021/10/22 06:49:25;;;;;;;;;;;;;;;21.53;52.57;101634.22;7285413;19;152764;-53
2021/10/22 06:52:06;;;;;;;;;;;;;;;21.45;49.06;101644.13;7288356;19;151916;-53
2021/10/22 06:54:32;;;;;;;;;;;;;;;21.45;49.36;101655.38;7295864;19;153288;-53
2021/10/22 06:56:59;;;;;;;;;;;;;;;21.45;49.08;101652.56;7290351;19;151556;-53
2021/10/22 06:59:26;;;;;;;;;;;;;;;21.45;49.56;101649.75;7288070;19;152817;-53
2021/10/22 07:01:53;;;;;;;;;;;;;;;21.45;49.65;101655.38;7288948;19;153778;-53
2021/10/22 07:04:20;;;;;;;;;;;;;;;21.45;49.45;101663.81;7289012;19;151705;-53
2021/10/22 07:09:24;;;;;;;;;;;;;;;21.45;49.67;101672.25;7285434;19;153804;-53
2021/10/22 07:11:50;;;;;;;;;;;;;;;21.45;49.52;101677.88;7285502;19;152474;-53
2021/10/22 07:14:17;;;;;;;;;;;;;;;21.44;49.98;101670.56;7295917;19;153330;-54
2021/10/22 07:16:44;;;;;;;;;;;;;;;21.43;49.88;101668.06;7286899;19;151872;-53
2021/10/22 07:19:10;;;;;;;;;;;;;;;21.43;49.71;101674.53;7286227;19;153424;-53
2021/10/22 07:21:43;;;;;;;;;;;;;;;21.43;49.80;101684.94;7287813;19;153893;-53
2021/10/22 07:24:16;;;;;;;;;;;;;;;21.42;50.17;101692.53;7289028;19;151742;-53
2021/10/22 07:26:43;;;;;;;;;;;;;;;21.43;50.67;101697.03;7289799;19;153428;-53
2021/10/22 07:29:10;;;;;;;;;;;;;;;21.40;50.23;101697.59;7287889;19;153709;-53
2021/10/22 07:31:37;;;;;;;;;;;;;;;21.38;50.13;101704.66;7289260;19;152070;-53
2021/10/22 07:34:04;;;;;;;;;;;;;;;21.39;50.31;101704.38;7289912;19;152990;-53
2021/10/22 07:36:35;;;;;;;;;;;;;;;21.35;50.28;101706.06;7295661;19;153366;-54
2021/10/22 07:39:04;;;;;;;;;;;;;;;21.34;50.29;101706.38;7289338;19;153187;-53
2021/10/22 07:41:31;;;;;;;;;;;;;;;21.33;50.63;101705.53;7286654;19;154397;-53
2021/10/22 07:43:58;;;;;;;;;;;;;;;21.31;50.18;101702.19;7288644;19;152022;-53
2021/10/22 07:46:24;;;;;;;;;;;;;;;21.29;50.12;101719.38;7286291;19;152959;-53
2021/10/22 07:48:51;;;;;;;;;;;;;;;21.27;50.16;101710.38;7287190;19;154641;-53
2021/10/22 07:51:18;;;;;;;;;;;;;;;21.25;49.93;101709.00;7284687;19;152353;-53
2021/10/22 07:53:45;;;;;;;;;;;;;;;21.23;49.73;101709.28;7284513;19;152678;-53
2021/10/22 07:56:11;;;;;;;;;;;;;;;21.22;49.90;101709.56;7284150;19;154019;-54
2021/10/22 07:58:38;;;;;;;;;;;;;;;21.20;49.73;101723.94;7293649;19;151640;-53
2021/10/22 08:01:05;;;;;;;;;;;;;;;21.18;49.87;101719.72;7284473;19;154644;-53
2021/10/22 08:03:33;;;;;;;;;;;;;;;21.16;49.77;101722.84;7286042;19;152042;-53
2021/10/22 08:06:01;;;;;;;;;;;;;;;21.16;49.93;101725.66;7283506;19;153559;-53
2021/10/22 08:08:30;;;;;;;;;;;;;;;21.15;50.08;101720.31;7286555;19;153393;-53
2021/10/22 08:10:57;;;;;;;;;;;;;;;21.15;50.61;101731.56;7279217;19;152757;-53
2021/10/22 08:13:24;;;;;;;;;;;;;;;21.14;49.52;101729.88;7281508;19;153744;-53
2021/10/22 08:15:51;;;;;;;;;;;;;;;21.11;49.17;101736.91;7286739;19;153365;-53
2021/10/22 08:18:18;;;;;;;;;;;;;;;21.09;49.44;101727.91;7284921;19;152628;-53
2021/10/22 08:20:54;;;;;;;;;;;;;;;21.07;49.49;101732.16;7292540;19;152424;-52
2021/10/22 08:23:21;;;;;;;;;;;;;;;21.02;49.91;101737.81;7283418;19;152064;-53
2021/10/22 08:25:48;;;;;;;;;;;;;;;21.02;49.75;101746.25;7286562;19;152777;-53
2021/10/22 08:28:16;;;;;;;;;;;;;;;21.01;49.62;101741.75;7285412;19;153514;-53
2021/10/22 08:30:42;;;;;;;;;;;;;;;20.98;49.56;101750.78;7284553;19;152014;-54
2021/10/22 08:33:11;;;;;;;;;;;;;;;20.96;49.74;101753.03;7286810;19;153549;-53
2021/10/22 08:35:39;;;;;;;;;;;;;;;20.92;49.57;101749.13;7285781;19;153311;-53
2021/10/22 08:38:09;;;;;;;;;;;;;;;20.90;49.65;101751.38;7283622;19;151973;-53
2021/10/22 08:40:36;;;;;;;;;;;;;;;20.88;49.77;101748.03;7285942;19;152860;-53
2021/10/22 08:43:03;;;;;;;;;;;;;;;20.83;49.70;101752.56;7291849;19;153723;-53
2021/10/22 08:45:31;;;;;;;;;;;;;;;20.84;49.86;101761.84;7284072;19;152769;-53
2021/10/22 08:47:59;;;;;;;;;;;;;;;20.83;49.44;101762.97;7283574;19;153819;-53
2021/10/22 08:50:26;;;;;;;;;;;;;;;20.80;49.60;101758.75;7282722;19;151859;-53
2021/10/22 08:52:52;;;;;;;;;;;;;;;20.74;49.11;101761.88;7283772;19;152630;-53
2021/10/22 08:55:19;;;;;;;;;;;;;;;20.71;49.19;101765.28;7283690;19;154209;-53
2021/10/22 08:57:48;;;;;;;;;;;;;;;20.70;49.51;101774.84;7284704;19;151704;-53
2021/10/22 09:00:16;;;;;;;;;;;;;;;20.66;49.79;101759.69;7283469;19;153595;-53
2021/10/22 09:02:45;;;;;;;;;;;;;;;20.66;49.65;101768.13;7284224;19;153987;-53
2021/10/22 09:05:14;;;;;;;;;;;;;;;20.67;50.23;101775.41;7290939;19;151989;-53
2021/10/22 09:07:42;;;;;;;;;;;;;;;20.66;50.34;101777.38;7282221;19;152034;-53
2021/10/22 09:10:12;;;;;;;;;;;;;;;20.67;50.23;101778.22;7284116;19;151753;-53
2021/10/22 09:12:41;;;;;;;;;;;;;;;20.69;50.46;101773.16;7280002;19;153362;-53
2021/10/22 09:15:09;;;;;;;;;;;;;;;20.68;49.75;101774.28;7278440;19;153495;-53
2021/10/22 09:17:37;;;;;;;;;;;;;;;20.71;49.73;101788.59;7286096;19;151927;-53
2021/10/22 09:20:05;;;;;;;;;;;;;;;20.73;49.75;101788.28;7284649;19;152579;-53
2021/10/22 09:22:34;;;;;;;;;;;;;;;20.74;49.33;101776.78;7283013;19;153517;-53
2021/10/22 09:25:05;;;;;;;;;;;;;;;20.76;49.33;101794.16;7291464;19;151778;-53
2021/10/22 09:27:32;;;;;;;;;;;;;;;20.79;49.66;101790.78;7282862;19;153479;-53
2021/10/22 09:29:59;;;;;;;;;;;;;;;20.80;49.90;101795.25;7281318;19;152605;-53
2021/10/22 09:32:26;;;;;;;;;;;;;;;20.83;49.38;101799.47;7285698;19;152755;-53
2021/10/22 09:35:05;;;;;;;;;;;;;;;20.84;48.92;101792.72;7284439;19;154334;-53
2021/10/22 09:37:42;;;;;;;;;;;;;;;20.85;49.75;101800.00;7283479;19;152107;-53
2021/10/22 09:40:09;;;;;;;;;;;;;;;20.87;49.70;101794.94;7285184;19;153639;-53
2021/10/22 09:42:46;;;;;;;;;;;;;;;20.88;49.15;101796.63;7289413;19;154172;-53
2021/10/22 09:45:23;;;;;;;;;;;;;;;20.90;49.20;101790.72;7291458;19;151942;-53
2021/10/22 09:47:50;;;;;;;;;;;;;;;20.91;49.53;101792.38;7296784;19;153151;-53
2021/10/22 09:50:16;;;;;;;;;;;;;;;20.91;49.25;101795.19;7288686;19;152041;-54
2021/10/22 09:52:44;;;;;;;;;;;;;;;20.91;49.29;101790.41;7292091;19;153743;-53
2021/10/22 09:55:12;;;;;;;;;;;;;;;20.92;49.43;101796.88;7287499;19;153944;-53
2021/10/22 09:57:39;;;;;;;;;;;;;;;20.93;49.22;101809.81;7290826;19;151886;-53
2021/10/22 10:00:09;;;;;;;;;;;;;;;20.94;48.96;101797.44;7287644;19;151791;-53
2021/10/22 10:02:36;;;;;;;;;;;;;;;20.94;48.98;101803.06;7288273;19;153406;-53
2021/10/22 10:05:06;;;;;;;;;;;;;;;20.94;49.28;101811.50;7290728;19;152180;-53
2021/10/22 10:07:35;;;;;;;;;;;;;;;20.92;49.03;101794.91;7289309;19;153076;-53
2021/10/22 10:10:02;;;;;;;;;;;;;;;20.92;48.76;101796.88;7297061;19;153881;-53
2021/10/22 10:12:29;;;;;;;;;;;;;;;20.91;48.48;101801.66;7289398;19;152999;-53
2021/10/22 10:14:56;;;;;;;;;;;;;;;20.92;49.07;101805.31;7284916;19;152920;-53
2021/10/22 10:17:23;;;;;;;;;;;;;;;20.92;48.71;101814.59;7290849;19;152148;-53
2021/10/22 10:19:51;;;;;;;;;;;;;;;20.91;49.07;101806.44;7290725;19;152849;-54
2021/10/22 10:22:21;;;;;;;;;;;;;;;20.90;48.99;101818.78;7286816;19;153716;-53
2021/10/22 10:24:49;;;;;;;;;;;;;;;20.89;48.88;101811.53;7290693;19;151959;-53
2021/10/22 10:27:16;;;;;;;;;;;;;;;20.89;49.00;101815.19;7288168;19;153392;-53
2021/10/22 10:29:44;;;;;;;;;;;;;;;20.88;48.91;101821.91;7289511;19;153258;-53
2021/10/22 10:32:14;;;;;;;;;;;;;;;20.87;48.95;101823.03;7295245;19;151854;-53
2021/10/22 10:34:43;;;;;;;;;;;;;;;20.86;48.97;101821.34;7288149;19;154365;-53
2021/10/22 10:37:20;;;;;;;;;;;;;;;20.84;48.96;101816.03;7290115;19;151785;-53
2021/10/22 10:39:48;;;;;;;;;;;;;;;20.84;48.68;101826.44;7288073;19;153304;-53
2021/10/22 10:42:23;;;;;;;;;;;;;;;20.82;48.80;101826.72;7287374;19;153430;-53
2021/10/22 10:44:50;;;;;;;;;;;;;;;20.82;48.95;101826.72;7289436;19;151752;-53
2021/10/22 10:47:27;;;;;;;;;;;;;;;20.83;48.91;101817.16;7287400;19;153376;-53
2021/10/22 10:49:54;;;;;;;;;;;;;;;20.84;49.00;101823.63;7289009;19;152828;-53
2021/10/22 10:52:30;;;;;;;;;;;;;;;20.82;48.73;101826.72;7287548;19;151683;-53
2021/10/22 10:55:06;;;;;;;;;;;;;;;20.81;48.71;101827.00;7296374;19;153301;-53
2021/10/22 10:57:33;;;;;;;;;;;;;;;20.79;48.73;101832.06;7287072;19;151677;-53
2021/10/22 11:00:09;;;;;;;;;;;;;;;20.77;48.24;101826.75;7286987;19;152598;-53
2021/10/22 11:02:56;;;;;;;;;;;;;;;20.76;47.80;101841.91;7287948;19;153591;-53
2021/10/22 11:05:47;;;;;;;;;;;;;;;20.75;48.42;101820.59;7287845;19;152098;-53
2021/10/22 11:08:15;;;;;;;;;;;;;;;20.73;47.81;101827.59;7288409;19;153464;-53
2021/10/22 11:10:56;;;;;;;;;;;;;;;20.72;47.89;101835.19;7287108;19;153970;-53
2021/10/22 11:13:24;;;;;;;;;;;;;;;20.71;47.83;101830.72;7287145;19;152783;-53
2021/10/22 11:15:51;;;;;;;;;;;;;;;20.71;48.33;101835.50;7284915;19;152131;-53
2021/10/22 11:18:19;;;;;;;;;;;;;;;20.71;48.45;101829.88;7294746;19;152293;-53
2021/10/22 11:21:02;;;;;;;;;;;;;;;20.72;48.17;101831.53;7287948;19;152834;-53
2021/10/22 11:23:29;;;;;;;;;;;;;;;20.70;48.47;101834.66;7288297;19;154120;-53
2021/10/22 11:25:57;;;;;;;;;;;;;;;20.72;48.45;101828.72;7285295;19;152266;-53
2021/10/22 11:28:28;;;;;;;;;;;;;;;20.72;48.45;101859.63;7287028;19;152144;-53
2021/10/22 11:30:56;;;;;;;;;;;;;;;20.72;48.50;101856.81;7286365;19;153354;-53
2021/10/22 11:33:26;;;;;;;;;;;;;;;20.70;48.89;101862.72;7286690;19;151919;-53
2021/10/22 11:35:53;;;;;;;;;;;;;;;20.71;48.81;101858.81;7287960;19;153427;-54
2021/10/22 11:38:24;;;;;;;;;;;;;;;20.70;49.11;101857.13;7294836;19;154546;-53
2021/10/22 11:40:53;;;;;;;;;;;;;;;20.69;49.01;101849.81;7288467;19;153339;-53
2021/10/22 11:43:20;;;;;;;;;;;;;;;20.71;49.12;101861.63;7285857;19;153429;-53
2021/10/22 11:45:51;;;;;;;;;;;;;;;20.68;49.47;101856.56;7288124;19;151956;-53
2021/10/22 11:48:27;;;;;;;;;;;;;;;20.68;49.59;101862.16;7288223;19;153343;-53
2021/10/22 11:50:54;;;;;;;;;;;;;;;20.68;49.10;101856.56;7285921;19;153788;-53
2021/10/22 11:53:25;;;;;;;;;;;;;;;20.68;49.30;101856.56;7288442;19;151797;-53
2021/10/22 11:55:54;;;;;;;;;;;;;;;20.68;49.55;101864.97;7287724;19;151810;-53
2021/10/22 11:58:22;;;;;;;;;;;;;;;20.69;49.76;101861.03;7286214;19;153245;-53
2021/10/22 12:00:49;;;;;;;;;;;;;;;20.71;49.89;101869.19;7293370;19;152095;-53
2021/10/22 12:03:26;;;;;;;;;;;;;;;20.73;50.17;101869.72;7285550;19;153767;-53
2021/10/22 12:05:55;;;;;;;;;;;;;;;20.73;49.97;101879.00;7285852;19;152169;-53
2021/10/22 12:08:22;;;;;;;;;;;;;;;20.75;49.95;101873.09;7286573;19;152717;-53
2021/10/22 12:10:50;;;;;;;;;;;;;;;20.78;50.14;101886.56;7283245;19;154126;-53
2021/10/22 12:13:28;;;;;;;;;;;;;;;20.80;49.87;101868.28;7287144;19;151531;-53
2021/10/22 12:15:54;;;;;;;;;;;;;;;20.82;50.02;101877.28;7283369;19;153944;-53
2021/10/22 12:18:21;;;;;;;;;;;;;;;20.86;50.07;101888.78;7283737;19;153775;-53
2021/10/22 12:20:48;;;;;;;;;;;;;;;20.87;50.29;101884.84;7285511;19;151816;-53
2021/10/22 12:23:15;;;;;;;;;;;;;;;20.89;50.28;101893.00;7293370;19;153483;-53
2021/10/22 12:25:43;;;;;;;;;;;;;;;20.92;49.87;101889.59;7285446;19;152342;-53
2021/10/22 12:28:14;;;;;;;;;;;;;;;20.94;49.81;101892.97;7285769;19;153175;-53
2021/10/22 12:30:41;;;;;;;;;;;;;;;20.96;50.05;101893.50;7283441;19;153245;-53
2021/10/22 12:33:09;;;;;;;;;;;;;;;20.97;50.08;101890.41;7282855;19;152790;-53
2021/10/22 12:35:41;;;;;;;;;;;;;;;20.98;50.13;101886.47;7284868;19;153300;-53
2021/10/22 12:38:10;;;;;;;;;;;;;;;20.98;50.16;101892.09;7284389;19;153158;-53